createdAt,value
2018-11-27T00:04:34.522Z,5.70
2018-11-27T00:07:03.264Z,5.50
2018-11-27T00:09:31.881Z,5.70
2018-11-27T00:12:00.379Z,5.60
2018-11-27T00:14:28.999Z,5.60
2018-11-27T00:16:57.716Z,5.80
2018-11-27T00:19:26.310Z,5.60
2018-11-27T00:21:54.830Z,5.50
2018-11-27T00:24:23.332Z,5.50
2018-11-27T00:26:51.807Z,5.50
2018-11-27T00:29:20.315Z,5.60
2018-11-27T00:31:48.825Z,5.70
2018-11-27T00:34:17.303Z,5.60
2018-11-27T00:36:47.286Z,5.70
2018-11-27T00:39:15.804Z,5.60
2018-11-27T00:41:44.250Z,5.80
2018-11-27T00:44:12.746Z,5.80
2018-11-27T00:46:41.246Z,5.60
2018-11-27T00:49:09.785Z,5.60
2018-11-27T00:51:38.344Z,5.70
2018-11-27T00:54:06.851Z,5.70
2018-11-27T00:56:35.363Z,5.70
2018-11-27T00:59:04.675Z,5.70
2018-11-27T01:01:33.271Z,5.60
2018-11-27T01:04:01.821Z,5.70
2018-11-27T01:06:30.303Z,5.60
2018-11-27T01:08:58.821Z,5.50
2018-11-27T01:11:27.349Z,5.40
2018-11-27T01:13:55.863Z,5.50
2018-11-27T01:16:24.311Z,5.40
2018-11-27T01:18:52.834Z,5.40
2018-11-27T01:21:21.343Z,5.60
2018-11-27T01:23:49.873Z,5.50
2018-11-27T01:26:18.380Z,5.70
2018-11-27T01:28:46.932Z,5.70
2018-11-27T01:31:15.401Z,5.60
2018-11-27T01:33:43.923Z,5.60
2018-11-27T01:36:12.435Z,5.70
2018-11-27T01:38:40.994Z,5.80
2018-11-27T01:41:09.456Z,5.80
2018-11-27T01:43:38.014Z,5.70
2018-11-27T01:46:06.651Z,5.70
2018-11-27T01:48:35.576Z,5.60
2018-11-27T01:51:04.101Z,5.60
2018-11-27T01:53:32.570Z,5.60
2018-11-27T01:56:01.071Z,5.60
2018-11-27T01:58:29.613Z,5.60
2018-11-27T02:00:58.123Z,5.60
2018-11-27T02:03:26.604Z,5.50
2018-11-27T02:05:55.091Z,5.40
2018-11-27T02:08:23.598Z,5.40
2018-11-27T02:10:52.085Z,5.40
2018-11-27T02:13:20.637Z,5.40
2018-11-27T02:15:49.124Z,5.30
2018-11-27T02:18:17.639Z,5.20
2018-11-27T02:20:46.164Z,5.30
2018-11-27T02:23:14.668Z,5.20
2018-11-27T02:25:43.186Z,5.40
2018-11-27T02:28:11.691Z,5.40
2018-11-27T02:30:40.514Z,5.40
2018-11-27T02:33:09.018Z,5.40
2018-11-27T02:35:37.520Z,5.30
2018-11-27T02:38:06.246Z,5.40
2018-11-27T02:40:34.769Z,5.50
2018-11-27T02:43:03.240Z,5.50
2018-11-27T02:45:31.803Z,5.50
2018-11-27T02:48:00.350Z,5.30
2018-11-27T02:50:28.849Z,5.30
2018-11-27T02:52:57.343Z,5.20
2018-11-27T02:55:26.731Z,5.30
2018-11-27T02:57:55.423Z,5.30
2018-11-27T03:00:27.414Z,5.10
2018-11-27T03:02:56.034Z,5.10
2018-11-27T03:05:33.107Z,5.10
2018-11-27T03:08:01.641Z,5.40
2018-11-27T03:10:30.224Z,5.50
2018-11-27T03:12:58.873Z,5.40
2018-11-27T03:15:27.361Z,5.40
2018-11-27T03:17:55.941Z,5.40
2018-11-27T03:20:24.529Z,5.20
2018-11-27T03:22:53.009Z,5.40
2018-11-27T03:25:22.330Z,5.50
2018-11-27T03:27:52.159Z,5.30
2018-11-27T03:30:22.261Z,5.20
2018-11-27T03:32:50.815Z,5.10
2018-11-27T03:35:20.637Z,5.30
2018-11-27T03:37:50.265Z,5.30
2018-11-27T03:40:22.843Z,5.30
2018-11-27T03:42:51.599Z,5.30
2018-11-27T03:45:20.809Z,5.40
2018-11-27T03:47:49.331Z,5.40
2018-11-27T03:50:22.254Z,5.50
2018-11-27T03:52:50.876Z,5.50
2018-11-27T03:55:19.551Z,5.50
2018-11-27T03:57:48.086Z,5.40
2018-11-27T04:00:25.850Z,5.50
2018-11-27T04:03:05.431Z,5.50
2018-11-27T04:05:33.970Z,5.50
2018-11-27T04:08:02.574Z,5.50
2018-11-27T04:10:31.230Z,5.50
2018-11-27T04:12:59.763Z,5.60
2018-11-27T04:15:28.356Z,5.50
2018-11-27T04:17:57.490Z,5.50
2018-11-27T04:20:25.979Z,5.60
2018-11-27T04:22:54.496Z,5.60
2018-11-27T04:25:22.966Z,5.60
2018-11-27T04:27:51.447Z,5.50
2018-11-27T04:30:20.828Z,5.60
2018-11-27T04:32:49.356Z,5.60
2018-11-27T04:35:19.088Z,5.60
2018-11-27T04:37:47.740Z,5.60
2018-11-27T04:40:20.265Z,5.60
2018-11-27T04:42:48.814Z,5.60
2018-11-27T04:45:20.058Z,5.60
2018-11-27T04:47:49.553Z,5.50
2018-11-27T04:50:18.693Z,5.60
2018-11-27T04:52:47.293Z,5.70
2018-11-27T04:55:16.712Z,5.70
2018-11-27T04:57:46.045Z,5.70
2018-11-27T05:00:24.153Z,5.70
2018-11-27T05:02:52.630Z,5.70
2018-11-27T05:05:21.131Z,5.80
2018-11-27T05:07:49.678Z,5.80
2018-11-27T05:10:23.975Z,5.90
2018-11-27T05:12:52.476Z,5.90
2018-11-27T05:15:22.341Z,5.80
2018-11-27T05:17:53.165Z,5.70
2018-11-27T05:20:21.720Z,5.80
2018-11-27T05:22:50.295Z,5.80
2018-11-27T05:25:19.591Z,5.80
2018-11-27T05:27:50.473Z,5.80
2018-11-27T05:30:21.123Z,5.70
2018-11-27T05:32:49.655Z,5.80
2018-11-27T05:35:20.102Z,5.80
2018-11-27T05:37:49.267Z,5.80
2018-11-27T05:40:21.640Z,5.80
2018-11-27T05:42:51.483Z,5.70
2018-11-27T05:45:20.789Z,5.70
2018-11-27T05:47:50.291Z,5.70
2018-11-27T05:50:19.325Z,5.70
2018-11-27T05:52:47.878Z,5.70
2018-11-27T05:55:16.937Z,5.60
2018-11-27T05:57:46.813Z,5.60
2018-11-27T06:00:17.429Z,5.60
2018-11-27T06:02:46.642Z,5.60
2018-11-27T06:05:18.196Z,5.70
2018-11-27T06:07:46.755Z,5.70
2018-11-27T06:10:17.367Z,5.70
2018-11-27T06:12:45.925Z,5.70
2018-11-27T06:15:15.722Z,5.60
2018-11-27T06:17:44.373Z,5.60
2018-11-27T06:20:16.004Z,5.60
2018-11-27T06:22:44.498Z,5.60
2018-11-27T06:25:16.215Z,5.60
2018-11-27T06:27:45.020Z,5.70
2018-11-27T06:30:18.469Z,5.60
2018-11-27T06:32:47.029Z,5.70
2018-11-27T06:35:17.294Z,5.70
2018-11-27T06:37:45.782Z,5.50
2018-11-27T06:40:18.494Z,5.50
2018-11-27T06:42:47.496Z,5.60
2018-11-27T06:45:18.874Z,5.50
2018-11-27T06:47:48.489Z,5.70
2018-11-27T06:50:17.689Z,5.70
2018-11-27T06:52:46.221Z,5.70
2018-11-27T06:55:17.419Z,5.70
2018-11-27T06:57:45.926Z,5.70
2018-11-27T07:00:15.547Z,5.80
2018-11-27T07:02:45.137Z,5.60
2018-11-27T07:05:14.198Z,5.80
2018-11-27T07:07:43.029Z,5.70
2018-11-27T07:10:28.228Z,5.80
2018-11-27T07:12:59.667Z,5.70
2018-11-27T07:15:28.248Z,5.70
2018-11-27T07:17:56.784Z,5.70
2018-11-27T07:20:26.211Z,5.80
2018-11-27T07:22:54.766Z,5.90
2018-11-27T07:25:23.277Z,5.90
2018-11-27T07:27:52.151Z,6.00
2018-11-27T07:30:21.724Z,6.00
2018-11-27T07:32:50.262Z,5.90
2018-11-27T07:35:18.991Z,5.90
2018-11-27T07:37:47.637Z,5.90
2018-11-27T07:40:22.124Z,5.80
2018-11-27T07:42:52.860Z,6.00
2018-11-27T07:45:21.797Z,5.90
2018-11-27T07:47:50.355Z,6.00
2018-11-27T07:50:18.966Z,6.00
2018-11-27T07:52:47.558Z,6.00
2018-11-27T07:55:17.148Z,6.00
2018-11-27T07:57:45.820Z,5.80
2018-11-27T08:00:17.250Z,5.60
2018-11-27T08:02:46.810Z,5.70
2018-11-27T08:05:17.578Z,5.80
2018-11-27T08:07:48.614Z,5.90
2018-11-27T08:10:18.704Z,5.90
2018-11-27T08:12:47.175Z,5.90
2018-11-27T08:15:17.743Z,5.90
2018-11-27T08:17:46.302Z,5.90
2018-11-27T08:20:30.854Z,5.90
2018-11-27T08:22:59.445Z,6.00
2018-11-27T08:25:28.003Z,5.70
2018-11-27T08:27:56.591Z,5.60
2018-11-27T08:30:25.416Z,5.60
2018-11-27T08:32:54.823Z,5.30
2018-11-27T08:35:25.592Z,5.20
2018-11-27T08:37:55.267Z,5.00
2018-11-27T08:40:24.856Z,4.90
2018-11-27T08:42:53.337Z,5.00
2018-11-27T08:45:23.024Z,5.10
2018-11-27T08:47:52.371Z,5.20
2018-11-27T08:50:22.166Z,5.30
2018-11-27T08:52:58.611Z,5.20
2018-11-27T08:55:36.497Z,5.40
2018-11-27T08:58:07.594Z,5.60
2018-11-27T09:00:36.087Z,5.50
2018-11-27T09:03:05.144Z,5.50
2018-11-27T09:05:33.628Z,5.60
2018-11-27T09:08:02.152Z,5.60
2018-11-27T09:10:30.677Z,5.70
2018-11-27T09:12:59.456Z,5.60
2018-11-27T09:15:27.761Z,5.60
2018-11-27T09:17:59.733Z,5.50
2018-11-27T09:20:28.974Z,5.60
2018-11-27T09:22:57.437Z,5.50
2018-11-27T09:25:25.971Z,5.50
2018-11-27T09:27:54.496Z,5.70
2018-11-27T09:30:25.202Z,5.60
2018-11-27T09:32:54.494Z,5.80
2018-11-27T09:35:23.229Z,5.70
2018-11-27T09:37:51.884Z,5.60
2018-11-27T09:40:21.071Z,5.70
2018-11-27T09:42:49.685Z,5.90
2018-11-27T09:45:25.539Z,5.90
2018-11-27T09:47:55.188Z,6.10
2018-11-27T09:50:23.670Z,6.10
2018-11-27T09:52:52.262Z,6.30
2018-11-27T09:55:26.754Z,6.10
2018-11-27T09:57:58.985Z,6.00
2018-11-27T10:00:29.495Z,5.90
2018-11-27T10:03:29.505Z,5.80
2018-11-27T10:05:58.729Z,5.80
2018-11-27T10:08:27.874Z,5.80
2018-11-27T10:10:57.317Z,5.70
2018-11-27T10:13:26.474Z,5.70
2018-11-27T10:15:55.794Z,6.00
2018-11-27T10:18:24.343Z,5.90
2018-11-27T10:20:52.898Z,5.80
2018-11-27T10:23:21.397Z,5.80
2018-11-27T10:25:49.915Z,5.90
2018-11-27T10:28:18.476Z,5.80
2018-11-27T10:30:47.035Z,5.70
2018-11-27T10:33:15.558Z,5.80
2018-11-27T10:35:46.847Z,5.80
2018-11-27T10:38:15.351Z,5.90
2018-11-27T10:40:43.959Z,5.80
2018-11-27T10:43:12.435Z,5.60
2018-11-27T10:45:40.949Z,5.50
2018-11-27T10:48:09.507Z,5.60
2018-11-27T10:50:38.068Z,5.80
2018-11-27T10:53:08.599Z,5.90
2018-11-27T10:55:37.171Z,6.00
2018-11-27T10:58:06.331Z,6.10
2018-11-27T11:00:40.181Z,6.20
2018-11-27T11:03:24.763Z,6.10
2018-11-27T11:05:55.296Z,6.10
2018-11-27T11:08:23.867Z,6.20
2018-11-27T11:10:52.477Z,6.30
2018-11-27T11:13:20.965Z,6.30
2018-11-27T11:15:49.533Z,6.30
2018-11-27T11:18:18.073Z,6.20
2018-11-27T11:20:46.600Z,6.10
2018-11-27T11:23:15.116Z,6.00
2018-11-27T11:25:44.603Z,6.00
2018-11-27T11:28:12.256Z,6.10
2018-11-27T11:30:40.805Z,6.20
2018-11-27T11:33:09.586Z,6.10
2018-11-27T11:35:38.088Z,6.20
2018-11-27T11:38:06.867Z,6.10
2018-11-27T11:40:35.415Z,6.10
2018-11-27T11:43:03.954Z,6.00
2018-11-27T11:45:32.641Z,6.00
2018-11-27T11:48:01.349Z,5.90
2018-11-27T11:50:31.914Z,5.90
2018-11-27T11:53:02.426Z,6.00
2018-11-27T11:55:30.944Z,6.00
2018-11-27T11:57:59.478Z,6.00
2018-11-27T12:00:30.806Z,5.90
2018-11-27T12:02:59.346Z,6.10
2018-11-27T12:05:28.002Z,6.10
2018-11-27T12:07:56.530Z,6.10
2018-11-27T12:10:25.060Z,6.10
2018-11-27T12:12:53.546Z,6.10
2018-11-27T12:15:22.041Z,5.90
2018-11-27T12:17:50.507Z,6.00
2018-11-27T12:20:19.858Z,5.70
2018-11-27T12:22:52.526Z,5.50
2018-11-27T12:25:24.201Z,5.60
2018-11-27T12:27:49.606Z,5.70
2018-11-27T12:30:20.338Z,5.50
2018-11-27T12:32:48.833Z,5.30
2018-11-27T12:35:17.874Z,5.20
2018-11-27T12:37:46.527Z,5.20
2018-11-27T12:40:23.560Z,5.50
2018-11-27T12:42:52.406Z,5.70
2018-11-27T12:45:22.070Z,5.90
2018-11-27T12:47:50.628Z,6.00
2018-11-27T12:50:24.613Z,5.70
2018-11-27T12:52:53.118Z,5.50
2018-11-27T12:55:22.814Z,5.30
2018-11-27T12:57:51.339Z,5.20
2018-11-27T13:00:21.145Z,5.40
2018-11-27T13:02:49.759Z,5.50
2018-11-27T13:05:23.475Z,5.60
2018-11-27T13:07:54.529Z,5.60
2018-11-27T13:10:23.010Z,5.50
2018-11-27T13:12:51.517Z,5.40
2018-11-27T13:15:20.848Z,5.30
2018-11-27T13:17:50.608Z,5.10
2018-11-27T13:20:19.732Z,4.90
2018-11-27T13:22:49.111Z,4.90
2018-11-27T13:25:19.872Z,5.10
2018-11-27T13:27:48.952Z,5.10
2018-11-27T13:30:21.952Z,5.40
2018-11-27T13:32:54.449Z,5.50
2018-11-27T13:35:23.321Z,5.30
2018-11-27T13:37:51.774Z,5.20
2018-11-27T13:40:21.016Z,5.30
2018-11-27T13:42:49.557Z,5.40
2018-11-27T13:45:18.122Z,5.40
2018-11-27T13:47:46.735Z,5.30
2018-11-27T13:50:16.401Z,5.40
2018-11-27T13:52:44.975Z,5.40
2018-11-27T13:55:15.177Z,5.70
2018-11-27T13:57:43.744Z,5.90
2018-11-27T14:00:13.464Z,5.90
2018-11-27T14:02:43.114Z,5.60
2018-11-27T14:05:14.115Z,5.60
2018-11-27T14:07:42.734Z,5.70
2018-11-27T14:10:11.855Z,5.60
2018-11-27T14:12:40.443Z,5.80
2018-11-27T14:15:17.822Z,5.80
2018-11-27T14:17:47.559Z,5.60
2018-11-27T14:20:16.094Z,5.70
2018-11-27T14:22:45.562Z,5.80
2018-11-27T14:25:14.623Z,5.60
2018-11-27T14:27:43.247Z,5.70
2018-11-27T14:30:18.048Z,5.60
2018-11-27T14:32:46.945Z,5.70
2018-11-27T14:35:16.130Z,5.70
2018-11-27T14:37:45.371Z,5.80
2018-11-27T14:40:18.002Z,5.80
2018-11-27T14:42:46.635Z,5.90
2018-11-27T14:45:24.945Z,5.90
2018-11-27T14:47:55.451Z,6.00
2018-11-27T14:50:24.040Z,6.10
2018-11-27T14:52:52.624Z,6.00
2018-11-27T14:55:28.292Z,6.00
2018-11-27T14:57:56.823Z,6.00
2018-11-27T15:00:25.959Z,6.10
2018-11-27T15:02:54.811Z,6.00
2018-11-27T15:05:31.462Z,5.80
2018-11-27T15:08:00.115Z,5.70
2018-11-27T15:10:28.658Z,5.70
2018-11-27T15:12:57.173Z,5.80
2018-11-27T15:15:25.711Z,5.90
2018-11-27T15:17:54.298Z,6.00
2018-11-27T15:20:23.374Z,5.80
2018-11-27T15:22:52.620Z,5.70
2018-11-27T15:25:21.151Z,5.60
2018-11-27T15:27:49.654Z,5.50
2018-11-27T15:30:25.363Z,5.40
2018-11-27T15:32:56.239Z,5.40
2018-11-27T15:35:24.846Z,5.10
2018-11-27T15:37:53.392Z,5.00
2018-11-27T15:40:23.366Z,5.20
2018-11-27T15:42:52.292Z,5.40
2018-11-27T15:45:23.832Z,5.40
2018-11-27T15:47:52.376Z,5.50
2018-11-27T15:50:20.873Z,5.50
2018-11-27T15:52:49.461Z,5.40
2018-11-27T15:55:22.314Z,5.40
2018-11-27T15:57:52.255Z,5.10
2018-11-27T16:00:22.144Z,5.10
2018-11-27T16:02:50.734Z,5.00
2018-11-27T16:05:19.272Z,4.80
2018-11-27T16:07:47.768Z,4.80
2018-11-27T16:10:17.652Z,4.80
2018-11-27T16:12:46.161Z,4.80
2018-11-27T16:15:15.789Z,4.60
2018-11-27T16:17:44.431Z,4.40
2018-11-27T16:20:14.980Z,4.70
2018-11-27T16:22:43.337Z,4.70
2018-11-27T16:25:13.927Z,4.80
2018-11-27T16:27:42.480Z,4.60
2018-11-27T16:30:16.178Z,4.50
2018-11-27T16:32:44.768Z,4.30
2018-11-27T16:35:14.109Z,4.10
2018-11-27T16:37:43.781Z,4.10
2018-11-27T16:40:19.345Z,4.10
2018-11-27T16:42:47.909Z,4.10
2018-11-27T16:45:21.465Z,4.10
2018-11-27T16:47:51.033Z,4.20
2018-11-27T16:50:19.830Z,4.20
2018-11-27T16:52:48.707Z,4.10
2018-11-27T16:55:19.459Z,4.10
2018-11-27T16:57:48.128Z,4.00
2018-11-27T17:00:20.100Z,4.20
2018-11-27T17:02:50.359Z,4.00
2018-11-27T17:05:18.091Z,4.00
2018-11-27T17:07:46.678Z,3.80
2018-11-27T17:10:17.148Z,3.70
2018-11-27T17:12:46.430Z,3.80
2018-11-27T17:15:18.057Z,3.80
2018-11-27T17:17:46.633Z,3.80
2018-11-27T17:20:32.143Z,3.90
2018-11-27T17:23:01.848Z,4.10
2018-11-27T17:25:30.406Z,4.10
2018-11-27T17:28:04.341Z,4.20
2018-11-27T17:30:52.962Z,4.30
2018-11-27T17:33:24.807Z,4.40
2018-11-27T17:35:53.343Z,4.30
2018-11-27T17:38:22.942Z,4.20
2018-11-27T17:40:51.536Z,4.30
2018-11-27T17:43:20.094Z,4.30
2018-11-27T17:45:48.652Z,4.30
2018-11-27T17:48:17.216Z,4.30
2018-11-27T17:50:45.756Z,4.30
2018-11-27T17:53:14.215Z,4.20
2018-11-27T17:55:42.683Z,4.30
2018-11-27T17:58:11.177Z,4.30
2018-11-27T18:00:39.713Z,4.40
2018-11-27T18:03:09.632Z,4.30
2018-11-27T18:05:38.154Z,4.30
2018-11-27T18:08:07.416Z,4.40
2018-11-27T18:10:36.500Z,4.50
2018-11-27T18:13:05.749Z,4.50
2018-11-27T18:15:34.404Z,4.50
2018-11-27T18:18:02.897Z,4.40
2018-11-27T18:20:31.484Z,4.40
2018-11-27T18:23:00.035Z,4.40
2018-11-27T18:25:28.643Z,4.30
2018-11-27T18:27:57.239Z,4.20
2018-11-27T18:30:25.777Z,4.30
2018-11-27T18:32:54.330Z,4.30
2018-11-27T18:35:23.798Z,4.40
2018-11-27T18:37:52.821Z,4.20
2018-11-27T18:40:21.738Z,4.20
2018-11-27T18:42:50.434Z,4.20
2018-11-27T18:45:23.894Z,4.00
2018-11-27T18:47:52.451Z,4.00
2018-11-27T18:50:21.769Z,4.10
2018-11-27T18:52:50.338Z,4.30
2018-11-27T18:55:18.974Z,4.20
2018-11-27T18:57:48.162Z,3.80
2018-11-27T19:00:18.769Z,3.70
2018-11-27T19:02:47.513Z,3.80
2018-11-27T19:05:16.146Z,3.80
2018-11-27T19:07:45.672Z,3.70
2018-11-27T19:10:18.403Z,3.70
2018-11-27T19:12:47.502Z,3.60
2018-11-27T19:15:49.472Z,3.50
2018-11-27T19:18:23.350Z,3.70
2018-11-27T19:20:52.075Z,3.80
2018-11-27T19:23:21.923Z,3.80
2018-11-27T19:25:50.387Z,4.00
2018-11-27T19:28:19.024Z,4.00
2018-11-27T19:30:47.964Z,3.90
2018-11-27T19:33:17.330Z,3.90
2018-11-27T19:35:45.972Z,4.00
2018-11-27T19:38:17.042Z,3.70
2018-11-27T19:40:45.642Z,3.80
2018-11-27T19:43:14.227Z,3.90
2018-11-27T19:45:42.756Z,3.90
2018-11-27T19:48:12.567Z,3.90
2018-11-27T19:50:41.092Z,3.80
2018-11-27T19:53:12.527Z,3.70
2018-11-27T19:55:40.989Z,3.60
2018-11-27T19:58:10.076Z,3.60
2018-11-27T20:00:38.707Z,3.60
2018-11-27T20:03:08.768Z,3.60
2018-11-27T20:05:37.356Z,3.80
2018-11-27T20:08:07.584Z,3.80
2018-11-27T20:10:36.099Z,3.80
2018-11-27T20:13:04.642Z,3.90
2018-11-27T20:15:33.153Z,3.80
2018-11-27T20:18:01.659Z,3.70
2018-11-27T20:20:30.234Z,3.80
2018-11-27T20:22:58.770Z,3.70
2018-11-27T20:25:27.304Z,3.70
2018-11-27T20:27:55.845Z,3.90
2018-11-27T20:30:26.064Z,3.90
2018-11-27T20:32:57.684Z,3.70
2018-11-27T20:35:26.644Z,3.60
2018-11-27T20:37:55.493Z,3.70
2018-11-27T20:40:24.138Z,3.70
2018-11-27T20:42:52.734Z,3.70
2018-11-27T20:45:24.534Z,3.70
2018-11-27T20:47:57.015Z,3.60
2018-11-27T20:50:25.591Z,3.50
2018-11-27T20:52:54.183Z,3.60
2018-11-27T20:55:22.900Z,3.80
2018-11-27T20:57:53.823Z,3.90
2018-11-27T21:00:24.647Z,3.80
2018-11-27T21:02:54.837Z,3.90
2018-11-27T21:05:23.367Z,3.90
2018-11-27T21:07:51.886Z,3.70
2018-11-27T21:10:20.424Z,3.80
2018-11-27T21:12:48.973Z,3.70
2018-11-27T21:15:18.619Z,3.80
2018-11-27T21:17:47.112Z,3.80
2018-11-27T21:20:16.415Z,3.70
2018-11-27T21:22:44.952Z,3.60
2018-11-27T21:25:28.076Z,3.60
2018-11-27T21:27:59.892Z,3.80
2018-11-27T21:30:28.418Z,3.70
2018-11-27T21:32:56.929Z,3.70
2018-11-27T21:35:25.457Z,3.80
2018-11-27T21:37:53.940Z,3.80
2018-11-27T21:40:22.455Z,3.90
2018-11-27T21:42:50.943Z,3.90
2018-11-27T21:45:24.634Z,3.90
2018-11-27T21:47:53.769Z,4.00
2018-11-27T21:50:28.227Z,4.00
2018-11-27T21:52:57.214Z,3.90
2018-11-27T21:55:26.162Z,3.90
2018-11-27T21:57:54.672Z,3.90
2018-11-27T22:00:24.280Z,3.80
2018-11-27T22:02:52.998Z,3.90
2018-11-27T22:05:21.498Z,3.90
2018-11-27T22:07:50.014Z,3.90
2018-11-27T22:10:19.906Z,4.00
2018-11-27T22:12:49.663Z,3.90
2018-11-27T22:15:37.284Z,3.80
2018-11-27T22:18:07.462Z,3.90
2018-11-27T22:20:35.946Z,3.90
2018-11-27T22:23:04.915Z,3.90
2018-11-27T22:25:33.423Z,3.90
2018-11-27T22:28:01.914Z,3.90
2018-11-27T22:30:30.657Z,3.90
2018-11-27T22:32:59.194Z,3.90
2018-11-27T22:35:27.660Z,3.80
2018-11-27T22:37:56.148Z,3.80
2018-11-27T22:40:25.619Z,3.80
2018-11-27T22:42:55.163Z,3.80
2018-11-27T22:45:26.795Z,3.90
2018-11-27T22:47:55.403Z,3.80
2018-11-27T22:50:24.581Z,3.80
2018-11-27T22:52:53.429Z,3.90
2018-11-27T22:55:21.943Z,3.80
2018-11-27T22:57:51.210Z,3.90
2018-11-27T23:00:30.225Z,3.90
2018-11-27T23:02:58.858Z,3.80
2018-11-27T23:05:27.436Z,3.90
2018-11-27T23:07:55.951Z,4.00
2018-11-27T23:10:25.312Z,4.00
2018-11-27T23:12:53.877Z,4.00
2018-11-27T23:15:22.740Z,3.90
2018-11-27T23:17:51.351Z,4.00
2018-11-27T23:20:20.445Z,3.90
2018-11-27T23:22:48.979Z,3.80
2018-11-27T23:25:18.368Z,3.70
2018-11-27T23:27:46.883Z,3.70
2018-11-27T23:30:16.518Z,3.80
2018-11-27T23:32:45.185Z,3.90
2018-11-27T23:35:14.453Z,3.80
2018-11-27T23:37:43.964Z,3.80
2018-11-27T23:40:14.803Z,3.80
2018-11-27T23:42:43.647Z,3.80
2018-11-27T23:45:16.071Z,3.70
2018-11-27T23:47:44.607Z,3.70
2018-11-27T23:50:14.317Z,3.80
2018-11-27T23:52:43.129Z,3.60
2018-11-27T23:55:12.491Z,3.60
2018-11-27T23:57:41.297Z,3.70
